Terminal Aerodrome Forecast
Issued by NWS

Home | Current Version | Previous Version | Text Only | Print | Product List | Glossary On
Versions: 1 2 3 4 5 6 7 8 9 10 11 12 13 14 15 16 17
653
FTUS43 KLSX 232218 AAA
TAFUIN
TAF AMD
KUIN 232218Z 2322/2418 15010KT P6SM OVC012
     FM240200 16009KT P6SM SCT025 BKN040
      TEMPO 2404/2406 4SM TSRA OVC025CB
     FM240600 16008KT 6SM -SHRA VCTS BKN040CB
     FM241200 19011KT P6SM SCT025 BKN050=

USA.gov is the U.S. government's official web portal to all federal, state and local government web resources and services.